sensor_id;sensor_type;location;lat;lon;timestamp;P1;durP1;ratioP1;P2;durP2;ratioP2
14373;SDS011;7270;49.004;12.066;2023-06-04T00:00:15;1.50;;;1.40;;
14373;SDS011;7270;49.004;12.066;2023-06-04T00:02:42;1.47;;;1.37;;
14373;SDS011;7270;49.004;12.066;2023-06-04T00:05:08;1.40;;;1.30;;
14373;SDS011;7270;49.004;12.066;2023-06-04T00:07:36;1.40;;;1.30;;
14373;SDS011;7270;49.004;12.066;2023-06-04T00:10:03;1.47;;;1.37;;
14373;SDS011;7270;49.004;12.066;2023-06-04T00:12:29;1.40;;;1.30;;
14373;SDS011;7270;49.004;12.066;2023-06-04T00:14:56;1.50;;;1.40;;
14373;SDS011;7270;49.004;12.066;2023-06-04T00:17:22;1.47;;;1.37;;
14373;SDS011;7270;49.004;12.066;2023-06-04T00:19:48;1.30;;;1.20;;
14373;SDS011;7270;49.004;12.066;2023-06-04T00:22:15;1.37;;;1.27;;
14373;SDS011;7270;49.004;12.066;2023-06-04T00:24:42;1.40;;;1.30;;
14373;SDS011;7270;49.004;12.066;2023-06-04T00:27:09;1.40;;;1.30;;
14373;SDS011;7270;49.004;12.066;2023-06-04T00:29:35;1.50;;;1.40;;
14373;SDS011;7270;49.004;12.066;2023-06-04T00:32:02;1.40;;;1.30;;
14373;SDS011;7270;49.004;12.066;2023-06-04T00:34:28;1.50;;;1.40;;
14373;SDS011;7270;49.004;12.066;2023-06-04T00:36:55;1.40;;;1.30;;
14373;SDS011;7270;49.004;12.066;2023-06-04T00:39:21;1.50;;;1.40;;
14373;SDS011;7270;49.004;12.066;2023-06-04T00:41:49;1.50;;;1.40;;
14373;SDS011;7270;49.004;12.066;2023-06-04T00:44:15;1.50;;;1.40;;
14373;SDS011;7270;49.004;12.066;2023-06-04T00:46:41;1.43;;;1.33;;
14373;SDS011;7270;49.004;12.066;2023-06-04T00:49:10;1.37;;;1.30;;
14373;SDS011;7270;49.004;12.066;2023-06-04T00:51:37;1.50;;;1.40;;
14373;SDS011;7270;49.004;12.066;2023-06-04T00:54:03;1.20;;;1.20;;
14373;SDS011;7270;49.004;12.066;2023-06-04T00:56:33;1.50;;;1.40;;
14373;SDS011;7270;49.004;12.066;2023-06-04T00:59:01;1.50;;;1.40;;
14373;SDS011;7270;49.004;12.066;2023-06-04T01:01:29;1.60;;;1.50;;
14373;SDS011;7270;49.004;12.066;2023-06-04T01:03:58;1.40;;;1.30;;
14373;SDS011;7270;49.004;12.066;2023-06-04T01:06:27;1.50;;;1.40;;
14373;SDS011;7270;49.004;12.066;2023-06-04T01:08:54;1.40;;;1.30;;
14373;SDS011;7270;49.004;12.066;2023-06-04T01:11:33;1.50;;;1.40;;
14373;SDS011;7270;49.004;12.066;2023-06-04T01:14:01;1.40;;;1.30;;
14373;SDS011;7270;49.004;12.066;2023-06-04T01:16:28;1.40;;;1.30;;
14373;SDS011;7270;49.004;12.066;2023-06-04T01:18:56;1.50;;;1.40;;
14373;SDS011;7270;49.004;12.066;2023-06-04T01:21:24;1.40;;;1.30;;
14373;SDS011;7270;49.004;12.066;2023-06-04T01:23:53;1.40;;;1.30;;
14373;SDS011;7270;49.004;12.066;2023-06-04T01:26:24;1.60;;;1.50;;
14373;SDS011;7270;49.004;12.066;2023-06-04T01:28:51;1.40;;;1.30;;
14373;SDS011;7270;49.004;12.066;2023-06-04T01:31:18;1.23;;;1.23;;
14373;SDS011;7270;49.004;12.066;2023-06-04T01:33:47;1.37;;;1.27;;
14373;SDS011;7270;49.004;12.066;2023-06-04T01:36:14;1.20;;;1.20;;
14373;SDS011;7270;49.004;12.066;2023-06-04T01:38:40;1.40;;;1.30;;
14373;SDS011;7270;49.004;12.066;2023-06-04T01:41:07;1.40;;;1.30;;
14373;SDS011;7270;49.004;12.066;2023-06-04T01:43:33;1.50;;;1.40;;
14373;SDS011;7270;49.004;12.066;2023-06-04T01:46:00;1.50;;;1.40;;
14373;SDS011;7270;49.004;12.066;2023-06-04T01:48:28;1.50;;;1.40;;
14373;SDS011;7270;49.004;12.066;2023-06-04T01:50:54;1.20;;;1.20;;
14373;SDS011;7270;49.004;12.066;2023-06-04T01:53:21;1.50;;;1.40;;
14373;SDS011;7270;49.004;12.066;2023-06-04T01:55:47;1.50;;;1.40;;
14373;SDS011;7270;49.004;12.066;2023-06-04T01:58:15;1.40;;;1.30;;
14373;SDS011;7270;49.004;12.066;2023-06-04T02:00:42;1.40;;;1.30;;
14373;SDS011;7270;49.004;12.066;2023-06-04T02:03:09;1.50;;;1.40;;
14373;SDS011;7270;49.004;12.066;2023-06-04T02:05:39;1.50;;;1.40;;
14373;SDS011;7270;49.004;12.066;2023-06-04T02:08:05;1.60;;;1.50;;
14373;SDS011;7270;49.004;12.066;2023-06-04T02:10:31;1.40;;;1.30;;
14373;SDS011;7270;49.004;12.066;2023-06-04T02:12:59;1.60;;;1.50;;
14373;SDS011;7270;49.004;12.066;2023-06-04T02:15:26;1.60;;;1.50;;
14373;SDS011;7270;49.004;12.066;2023-06-04T02:17:53;1.50;;;1.40;;
14373;SDS011;7270;49.004;12.066;2023-06-04T02:20:20;1.50;;;1.40;;
14373;SDS011;7270;49.004;12.066;2023-06-04T02:22:48;1.50;;;1.40;;
14373;SDS011;7270;49.004;12.066;2023-06-04T02:25:14;1.40;;;1.30;;
14373;SDS011;7270;49.004;12.066;2023-06-04T02:27:40;1.57;;;1.47;;
14373;SDS011;7270;49.004;12.066;2023-06-04T02:30:07;1.50;;;1.40;;
14373;SDS011;7270;49.004;12.066;2023-06-04T02:32:33;1.50;;;1.40;;
14373;SDS011;7270;49.004;12.066;2023-06-04T02:35:01;1.70;;;1.60;;
14373;SDS011;7270;49.004;12.066;2023-06-04T02:37:27;1.40;;;1.30;;
14373;SDS011;7270;49.004;12.066;2023-06-04T02:39:55;1.60;;;1.50;;
14373;SDS011;7270;49.004;12.066;2023-06-04T02:42:21;1.40;;;1.30;;
14373;SDS011;7270;49.004;12.066;2023-06-04T02:44:47;1.50;;;1.40;;
14373;SDS011;7270;49.004;12.066;2023-06-04T02:47:14;1.50;;;1.40;;
14373;SDS011;7270;49.004;12.066;2023-06-04T02:49:40;1.50;;;1.40;;
14373;SDS011;7270;49.004;12.066;2023-06-04T02:52:06;1.40;;;1.30;;
14373;SDS011;7270;49.004;12.066;2023-06-04T02:54:33;1.40;;;1.30;;
14373;SDS011;7270;49.004;12.066;2023-06-04T02:57:00;1.50;;;1.40;;
14373;SDS011;7270;49.004;12.066;2023-06-04T02:59:26;1.50;;;1.40;;
14373;SDS011;7270;49.004;12.066;2023-06-04T03:01:54;1.30;;;1.30;;
14373;SDS011;7270;49.004;12.066;2023-06-04T03:04:20;1.50;;;1.40;;
14373;SDS011;7270;49.004;12.066;2023-06-04T03:06:47;1.60;;;1.50;;
14373;SDS011;7270;49.004;12.066;2023-06-04T03:09:22;1.50;;;1.40;;
14373;SDS011;7270;49.004;12.066;2023-06-04T03:11:49;1.40;;;1.30;;
14373;SDS011;7270;49.004;12.066;2023-06-04T03:14:17;1.50;;;1.40;;
14373;SDS011;7270;49.004;12.066;2023-06-04T03:16:43;1.50;;;1.40;;
14373;SDS011;7270;49.004;12.066;2023-06-04T03:19:10;1.60;;;1.50;;
14373;SDS011;7270;49.004;12.066;2023-06-04T03:21:37;1.43;;;1.40;;
14373;SDS011;7270;49.004;12.066;2023-06-04T03:24:04;1.50;;;1.40;;
14373;SDS011;7270;49.004;12.066;2023-06-04T03:26:31;1.60;;;1.50;;
14373;SDS011;7270;49.004;12.066;2023-06-04T03:28:57;1.60;;;1.50;;
14373;SDS011;7270;49.004;12.066;2023-06-04T03:31:25;1.47;;;1.37;;
14373;SDS011;7270;49.004;12.066;2023-06-04T03:33:51;1.50;;;1.40;;
14373;SDS011;7270;49.004;12.066;2023-06-04T03:36:17;1.30;;;1.20;;
14373;SDS011;7270;49.004;12.066;2023-06-04T03:38:45;1.50;;;1.40;;
14373;SDS011;7270;49.004;12.066;2023-06-04T03:41:11;1.20;;;1.20;;
14373;SDS011;7270;49.004;12.066;2023-06-04T03:43:37;1.60;;;1.50;;
14373;SDS011;7270;49.004;12.066;2023-06-04T03:46:04;1.60;;;1.50;;
14373;SDS011;7270;49.004;12.066;2023-06-04T03:48:31;1.47;;;1.40;;
14373;SDS011;7270;49.004;12.066;2023-06-04T03:50:58;1.30;;;1.30;;
14373;SDS011;7270;49.004;12.066;2023-06-04T03:53:24;1.30;;;1.30;;
14373;SDS011;7270;49.004;12.066;2023-06-04T03:55:50;1.50;;;1.40;;
14373;SDS011;7270;49.004;12.066;2023-06-04T03:58:17;1.60;;;1.50;;
14373;SDS011;7270;49.004;12.066;2023-06-04T04:00:48;1.50;;;1.40;;
14373;SDS011;7270;49.004;12.066;2023-06-04T04:03:14;1.40;;;1.30;;
14373;SDS011;7270;49.004;12.066;2023-06-04T04:05:42;1.23;;;1.23;;
14373;SDS011;7270;49.004;12.066;2023-06-04T04:08:08;1.33;;;1.33;;
14373;SDS011;7270;49.004;12.066;2023-06-04T04:10:35;1.40;;;1.30;;
14373;SDS011;7270;49.004;12.066;2023-06-04T04:13:01;1.50;;;1.40;;
14373;SDS011;7270;49.004;12.066;2023-06-04T04:15:27;1.53;;;1.43;;
14373;SDS011;7270;49.004;12.066;2023-06-04T04:17:54;1.60;;;1.50;;
14373;SDS011;7270;49.004;12.066;2023-06-04T04:20:21;1.43;;;1.33;;
14373;SDS011;7270;49.004;12.066;2023-06-04T04:22:48;1.40;;;1.30;;
14373;SDS011;7270;49.004;12.066;2023-06-04T04:25:15;1.30;;;1.30;;
14373;SDS011;7270;49.004;12.066;2023-06-04T04:27:41;1.50;;;1.40;;
14373;SDS011;7270;49.004;12.066;2023-06-04T04:30:08;1.80;;;1.70;;
14373;SDS011;7270;49.004;12.066;2023-06-04T04:32:35;1.27;;;1.27;;
14373;SDS011;7270;49.004;12.066;2023-06-04T04:35:04;1.30;;;1.30;;
14373;SDS011;7270;49.004;12.066;2023-06-04T04:37:30;1.60;;;1.50;;
14373;SDS011;7270;49.004;12.066;2023-06-04T04:39:58;1.50;;;1.40;;
14373;SDS011;7270;49.004;12.066;2023-06-04T04:42:24;1.50;;;1.40;;
14373;SDS011;7270;49.004;12.066;2023-06-04T04:44:50;1.50;;;1.40;;
14373;SDS011;7270;49.004;12.066;2023-06-04T04:47:17;1.50;;;1.40;;
14373;SDS011;7270;49.004;12.066;2023-06-04T04:49:43;1.50;;;1.40;;
14373;SDS011;7270;49.004;12.066;2023-06-04T04:52:09;1.30;;;1.30;;
14373;SDS011;7270;49.004;12.066;2023-06-04T04:54:36;1.40;;;1.30;;
14373;SDS011;7270;49.004;12.066;2023-06-04T04:57:04;1.60;;;1.50;;
14373;SDS011;7270;49.004;12.066;2023-06-04T04:59:32;1.30;;;1.30;;
14373;SDS011;7270;49.004;12.066;2023-06-04T05:01:58;1.50;;;1.40;;
14373;SDS011;7270;49.004;12.066;2023-06-04T05:04:25;1.60;;;1.50;;
14373;SDS011;7270;49.004;12.066;2023-06-04T05:06:54;1.50;;;1.40;;
14373;SDS011;7270;49.004;12.066;2023-06-04T05:09:20;1.50;;;1.40;;
14373;SDS011;7270;49.004;12.066;2023-06-04T05:11:46;1.50;;;1.40;;
14373;SDS011;7270;49.004;12.066;2023-06-04T05:14:14;1.50;;;1.40;;
14373;SDS011;7270;49.004;12.066;2023-06-04T05:16:40;1.60;;;1.50;;
14373;SDS011;7270;49.004;12.066;2023-06-04T05:19:07;1.50;;;1.40;;
14373;SDS011;7270;49.004;12.066;2023-06-04T05:21:36;1.47;;;1.40;;
14373;SDS011;7270;49.004;12.066;2023-06-04T05:24:02;1.50;;;1.40;;
14373;SDS011;7270;49.004;12.066;2023-06-04T05:26:28;1.20;;;1.20;;
14373;SDS011;7270;49.004;12.066;2023-06-04T05:28:55;1.60;;;1.50;;
14373;SDS011;7270;49.004;12.066;2023-06-04T05:31:24;1.30;;;1.30;;
14373;SDS011;7270;49.004;12.066;2023-06-04T05:33:51;1.40;;;1.30;;
14373;SDS011;7270;49.004;12.066;2023-06-04T05:36:19;1.33;;;1.27;;
14373;SDS011;7270;49.004;12.066;2023-06-04T05:38:45;1.50;;;1.40;;
14373;SDS011;7270;49.004;12.066;2023-06-04T05:41:11;1.40;;;1.30;;
14373;SDS011;7270;49.004;12.066;2023-06-04T05:43:40;1.30;;;1.30;;
14373;SDS011;7270;49.004;12.066;2023-06-04T05:46:09;1.50;;;1.40;;
14373;SDS011;7270;49.004;12.066;2023-06-04T05:48:37;1.40;;;1.30;;
14373;SDS011;7270;49.004;12.066;2023-06-04T05:51:03;1.37;;;1.27;;
14373;SDS011;7270;49.004;12.066;2023-06-04T05:53:30;1.20;;;1.20;;
14373;SDS011;7270;49.004;12.066;2023-06-04T05:55:56;1.50;;;1.40;;
14373;SDS011;7270;49.004;12.066;2023-06-04T05:58:22;1.40;;;1.30;;
14373;SDS011;7270;49.004;12.066;2023-06-04T06:00:48;1.40;;;1.30;;
14373;SDS011;7270;49.004;12.066;2023-06-04T06:03:15;1.10;;;1.10;;
14373;SDS011;7270;49.004;12.066;2023-06-04T06:05:43;1.20;;;1.20;;
14373;SDS011;7270;49.004;12.066;2023-06-04T06:08:09;1.00;;;1.00;;
14373;SDS011;7270;49.004;12.066;2023-06-04T06:10:36;1.00;;;1.00;;
14373;SDS011;7270;49.004;12.066;2023-06-04T06:13:02;0.90;;;0.90;;
14373;SDS011;7270;49.004;12.066;2023-06-04T06:15:29;1.20;;;1.20;;
14373;SDS011;7270;49.004;12.066;2023-06-04T06:17:55;1.00;;;1.00;;
14373;SDS011;7270;49.004;12.066;2023-06-04T06:20:21;1.00;;;1.00;;
14373;SDS011;7270;49.004;12.066;2023-06-04T06:22:50;1.13;;;1.13;;
14373;SDS011;7270;49.004;12.066;2023-06-04T06:25:16;1.23;;;1.20;;
14373;SDS011;7270;49.004;12.066;2023-06-04T06:27:43;1.40;;;1.30;;
14373;SDS011;7270;49.004;12.066;2023-06-04T06:30:09;1.13;;;1.13;;
14373;SDS011;7270;49.004;12.066;2023-06-04T06:32:36;1.20;;;1.20;;
14373;SDS011;7270;49.004;12.066;2023-06-04T06:35:02;1.50;;;1.40;;
14373;SDS011;7270;49.004;12.066;2023-06-04T06:37:28;1.10;;;1.10;;
14373;SDS011;7270;49.004;12.066;2023-06-04T06:39:56;1.50;;;1.40;;
14373;SDS011;7270;49.004;12.066;2023-06-04T06:42:25;1.40;;;1.30;;
14373;SDS011;7270;49.004;12.066;2023-06-04T06:44:51;1.40;;;1.30;;
14373;SDS011;7270;49.004;12.066;2023-06-04T06:47:17;1.30;;;1.20;;
14373;SDS011;7270;49.004;12.066;2023-06-04T06:49:44;1.33;;;1.23;;
14373;SDS011;7270;49.004;12.066;2023-06-04T06:52:10;1.40;;;1.30;;
14373;SDS011;7270;49.004;12.066;2023-06-04T06:54:36;1.40;;;1.30;;
14373;SDS011;7270;49.004;12.066;2023-06-04T06:57:04;1.33;;;1.27;;
14373;SDS011;7270;49.004;12.066;2023-06-04T06:59:34;1.40;;;1.30;;
14373;SDS011;7270;49.004;12.066;2023-06-04T07:02:00;1.50;;;1.40;;
14373;SDS011;7270;49.004;12.066;2023-06-04T07:04:26;1.50;;;1.40;;
14373;SDS011;7270;49.004;12.066;2023-06-04T07:06:53;1.50;;;1.40;;
14373;SDS011;7270;49.004;12.066;2023-06-04T07:09:19;1.40;;;1.30;;
14373;SDS011;7270;49.004;12.066;2023-06-04T07:11:46;1.40;;;1.30;;
14373;SDS011;7270;49.004;12.066;2023-06-04T07:14:14;1.40;;;1.30;;
14373;SDS011;7270;49.004;12.066;2023-06-04T07:16:40;1.20;;;1.20;;
14373;SDS011;7270;49.004;12.066;2023-06-04T07:19:06;1.30;;;1.20;;
14373;SDS011;7270;49.004;12.066;2023-06-04T07:21:33;1.40;;;1.30;;
14373;SDS011;7270;49.004;12.066;2023-06-04T07:23:59;1.50;;;1.40;;
14373;SDS011;7270;49.004;12.066;2023-06-04T07:26:25;1.50;;;1.40;;
14373;SDS011;7270;49.004;12.066;2023-06-04T07:28:55;1.40;;;1.30;;
14373;SDS011;7270;49.004;12.066;2023-06-04T07:31:23;1.50;;;1.40;;
14373;SDS011;7270;49.004;12.066;2023-06-04T07:33:49;1.20;;;1.20;;
14373;SDS011;7270;49.004;12.066;2023-06-04T07:36:16;1.50;;;1.40;;
14373;SDS011;7270;49.004;12.066;2023-06-04T07:38:42;1.50;;;1.40;;
14373;SDS011;7270;49.004;12.066;2023-06-04T07:41:09;1.60;;;1.50;;
14373;SDS011;7270;49.004;12.066;2023-06-04T07:43:35;1.60;;;1.50;;
14373;SDS011;7270;49.004;12.066;2023-06-04T07:46:02;1.60;;;1.50;;
14373;SDS011;7270;49.004;12.066;2023-06-04T07:48:29;2.00;;;1.90;;
14373;SDS011;7270;49.004;12.066;2023-06-04T07:50:56;2.00;;;1.90;;
14373;SDS011;7270;49.004;12.066;2023-06-04T07:53:22;2.10;;;2.00;;
14373;SDS011;7270;49.004;12.066;2023-06-04T07:55:49;2.23;;;2.13;;
14373;SDS011;7270;49.004;12.066;2023-06-04T07:58:15;2.30;;;2.20;;
14373;SDS011;7270;49.004;12.066;2023-06-04T08:00:41;1.90;;;1.80;;
14373;SDS011;7270;49.004;12.066;2023-06-04T08:03:08;1.80;;;1.70;;
14373;SDS011;7270;49.004;12.066;2023-06-04T08:05:36;1.80;;;1.70;;
14373;SDS011;7270;49.004;12.066;2023-06-04T08:08:03;1.70;;;1.60;;
14373;SDS011;7270;49.004;12.066;2023-06-04T08:10:29;1.80;;;1.70;;
14373;SDS011;7270;49.004;12.066;2023-06-04T08:12:55;1.83;;;1.73;;
14373;SDS011;7270;49.004;12.066;2023-06-04T08:15:22;1.80;;;1.70;;
14373;SDS011;7270;49.004;12.066;2023-06-04T08:17:48;1.97;;;1.87;;
14373;SDS011;7270;49.004;12.066;2023-06-04T08:20:15;1.90;;;1.80;;
14373;SDS011;7270;49.004;12.066;2023-06-04T08:22:42;1.80;;;1.70;;
14373;SDS011;7270;49.004;12.066;2023-06-04T08:25:09;1.80;;;1.70;;
14373;SDS011;7270;49.004;12.066;2023-06-04T08:27:36;3.97;;;3.77;;
14373;SDS011;7270;49.004;12.066;2023-06-04T08:30:03;4.75;;;4.55;;
14373;SDS011;7270;49.004;12.066;2023-06-04T08:32:29;5.57;;;5.33;;
14373;SDS011;7270;49.004;12.066;2023-06-04T08:34:55;7.28;;;6.97;;
14373;SDS011;7270;49.004;12.066;2023-06-04T08:37:22;10.23;;;9.73;;
14373;SDS011;7270;49.004;12.066;2023-06-04T08:39:50;35.40;;;33.78;;
14373;SDS011;7270;49.004;12.066;2023-06-04T08:42:19;93.43;;;89.18;;
14373;SDS011;7270;49.004;12.066;2023-06-04T08:44:49;2.53;;;2.42;;
14373;SDS011;7270;49.004;12.066;2023-06-04T08:47:16;635.25;;;588.17;;
14373;SDS011;7270;49.004;12.066;2023-06-04T08:49:44;567.50;;;526.67;;
14373;SDS011;7270;49.004;12.066;2023-06-04T08:52:13;658.72;;;607.05;;
14373;SDS011;7270;49.004;12.066;2023-06-04T08:54:39;15.45;;;14.75;;
14373;SDS011;7270;49.004;12.066;2023-06-04T08:57:07;2.10;;;2.00;;
14373;SDS011;7270;49.004;12.066;2023-06-04T08:59:34;33.50;;;31.88;;
14373;SDS011;7270;49.004;12.066;2023-06-04T09:02:01;2.60;;;2.50;;
14373;SDS011;7270;49.004;12.066;2023-06-04T09:04:28;3.50;;;3.30;;
14373;SDS011;7270;49.004;12.066;2023-06-04T09:06:55;3.58;;;3.38;;
14373;SDS011;7270;49.004;12.066;2023-06-04T09:09:25;3.70;;;3.50;;
14373;SDS011;7270;49.004;12.066;2023-06-04T09:11:54;3.22;;;3.13;;
14373;SDS011;7270;49.004;12.066;2023-06-04T09:14:23;3.72;;;3.53;;
14373;SDS011;7270;49.004;12.066;2023-06-04T09:16:50;3.00;;;2.80;;
14373;SDS011;7270;49.004;12.066;2023-06-04T09:19:17;2.60;;;2.50;;
14373;SDS011;7270;49.004;12.066;2023-06-04T09:21:50;2.78;;;2.67;;
14373;SDS011;7270;49.004;12.066;2023-06-04T09:24:16;2.70;;;2.60;;
14373;SDS011;7270;49.004;12.066;2023-06-04T09:26:42;4.28;;;4.07;;
14373;SDS011;7270;49.004;12.066;2023-06-04T09:29:09;3.45;;;3.25;;
14373;SDS011;7270;49.004;12.066;2023-06-04T09:31:37;2.75;;;2.65;;
14373;SDS011;7270;49.004;12.066;2023-06-04T09:34:05;2.90;;;2.80;;
14373;SDS011;7270;49.004;12.066;2023-06-04T09:36:31;3.00;;;2.90;;
14373;SDS011;7270;49.004;12.066;2023-06-04T09:38:58;7.13;;;6.78;;
14373;SDS011;7270;49.004;12.066;2023-06-04T09:41:24;138.73;;;130.50;;
14373;SDS011;7270;49.004;12.066;2023-06-04T09:43:58;3.10;;;3.00;;
14373;SDS011;7270;49.004;12.066;2023-06-04T09:46:25;460.23;;;434.77;;
14373;SDS011;7270;49.004;12.066;2023-06-04T09:48:58;444.70;;;416.90;;
14373;SDS011;7270;49.004;12.066;2023-06-04T09:51:28;419.08;;;395.38;;
14373;SDS011;7270;49.004;12.066;2023-06-04T09:53:57;175.23;;;165.40;;
14373;SDS011;7270;49.004;12.066;2023-06-04T09:56:24;35.85;;;34.15;;
14373;SDS011;7270;49.004;12.066;2023-06-04T09:58:57;31.85;;;30.27;;
14373;SDS011;7270;49.004;12.066;2023-06-04T10:01:29;48.10;;;45.78;;
14373;SDS011;7270;49.004;12.066;2023-06-04T10:04:02;84.05;;;80.13;;
14373;SDS011;7270;49.004;12.066;2023-06-04T10:06:45;174.55;;;166.60;;
14373;SDS011;7270;49.004;12.066;2023-06-04T10:09:17;204.65;;;194.52;;
14373;SDS011;7270;49.004;12.066;2023-06-04T10:11:47;210.60;;;199.20;;
14373;SDS011;7270;49.004;12.066;2023-06-04T10:14:15;57.10;;;54.35;;
14373;SDS011;7270;49.004;12.066;2023-06-04T10:16:46;41.03;;;38.97;;
14373;SDS011;7270;49.004;12.066;2023-06-04T10:19:16;77.53;;;73.80;;
14373;SDS011;7270;49.004;12.066;2023-06-04T10:21:44;167.77;;;156.68;;
14373;SDS011;7270;49.004;12.066;2023-06-04T10:24:11;29.27;;;27.88;;
14373;SDS011;7270;49.004;12.066;2023-06-04T10:26:38;24.77;;;23.60;;
14373;SDS011;7270;49.004;12.066;2023-06-04T10:29:05;23.73;;;22.52;;
14373;SDS011;7270;49.004;12.066;2023-06-04T10:31:36;17.45;;;16.35;;
14373;SDS011;7270;49.004;12.066;2023-06-04T10:34:03;18.60;;;17.73;;
14373;SDS011;7270;49.004;12.066;2023-06-04T10:36:41;21.38;;;20.20;;
14373;SDS011;7270;49.004;12.066;2023-06-04T10:39:24;46.53;;;44.20;;
14373;SDS011;7270;49.004;12.066;2023-06-04T10:42:00;120.63;;;114.80;;
14373;SDS011;7270;49.004;12.066;2023-06-04T10:44:30;136.65;;;130.55;;
14373;SDS011;7270;49.004;12.066;2023-06-04T10:46:57;109.72;;;104.18;;
14373;SDS011;7270;49.004;12.066;2023-06-04T10:49:26;178.73;;;169.30;;
14373;SDS011;7270;49.004;12.066;2023-06-04T10:51:54;48.00;;;45.72;;
14373;SDS011;7270;49.004;12.066;2023-06-04T10:54:24;7.10;;;6.70;;
14373;SDS011;7270;49.004;12.066;2023-06-04T10:56:51;6.13;;;5.82;;
14373;SDS011;7270;49.004;12.066;2023-06-04T10:59:18;8.57;;;8.18;;
14373;SDS011;7270;49.004;12.066;2023-06-04T11:01:45;13.73;;;12.93;;
14373;SDS011;7270;49.004;12.066;2023-06-04T11:04:19;61.05;;;57.97;;
14373;SDS011;7270;49.004;12.066;2023-06-04T11:06:46;43.13;;;41.10;;
14373;SDS011;7270;49.004;12.066;2023-06-04T11:09:25;34.70;;;33.00;;
14373;SDS011;7270;49.004;12.066;2023-06-04T11:11:56;19.73;;;18.75;;
14373;SDS011;7270;49.004;12.066;2023-06-04T11:14:25;11.32;;;10.73;;
14373;SDS011;7270;49.004;12.066;2023-06-04T11:17:08;15.15;;;14.32;;
14373;SDS011;7270;49.004;12.066;2023-06-04T11:19:35;28.38;;;26.98;;
14373;SDS011;7270;49.004;12.066;2023-06-04T11:22:01;12.70;;;12.05;;
14373;SDS011;7270;49.004;12.066;2023-06-04T11:24:29;17.42;;;16.63;;
14373;SDS011;7270;49.004;12.066;2023-06-04T11:26:58;9.15;;;8.70;;
14373;SDS011;7270;49.004;12.066;2023-06-04T11:29:24;11.00;;;10.50;;
14373;SDS011;7270;49.004;12.066;2023-06-04T11:31:52;92.68;;;87.65;;
14373;SDS011;7270;49.004;12.066;2023-06-04T11:34:22;72.70;;;69.32;;
14373;SDS011;7270;49.004;12.066;2023-06-04T11:36:49;69.78;;;66.63;;
14373;SDS011;7270;49.004;12.066;2023-06-04T11:39:19;145.98;;;139.45;;
14373;SDS011;7270;49.004;12.066;2023-06-04T11:41:47;323.80;;;302.58;;
14373;SDS011;7270;49.004;12.066;2023-06-04T11:44:14;8.75;;;8.35;;
14373;SDS011;7270;49.004;12.066;2023-06-04T11:46:44;21.98;;;20.85;;
14373;SDS011;7270;49.004;12.066;2023-06-04T11:49:11;18.10;;;17.08;;
14373;SDS011;7270;49.004;12.066;2023-06-04T11:51:39;147.98;;;139.15;;
14373;SDS011;7270;49.004;12.066;2023-06-04T11:54:12;151.30;;;141.73;;
14373;SDS011;7270;49.004;12.066;2023-06-04T11:56:42;7.95;;;7.55;;
14373;SDS011;7270;49.004;12.066;2023-06-04T11:59:11;7.22;;;6.93;;
14373;SDS011;7270;49.004;12.066;2023-06-04T12:01:38;6.00;;;5.70;;
14373;SDS011;7270;49.004;12.066;2023-06-04T12:04:11;6.13;;;5.82;;
14373;SDS011;7270;49.004;12.066;2023-06-04T12:06:37;4.10;;;3.90;;
14373;SDS011;7270;49.004;12.066;2023-06-04T12:09:07;4.78;;;4.57;;
14373;SDS011;7270;49.004;12.066;2023-06-04T12:11:33;4.70;;;4.50;;
14373;SDS011;7270;49.004;12.066;2023-06-04T12:14:03;2.50;;;2.40;;
14373;SDS011;7270;49.004;12.066;2023-06-04T12:16:30;2.22;;;2.13;;
14373;SDS011;7270;49.004;12.066;2023-06-04T12:19:06;2.20;;;2.10;;
14373;SDS011;7270;49.004;12.066;2023-06-04T12:21:36;2.20;;;2.10;;
14373;SDS011;7270;49.004;12.066;2023-06-04T12:24:06;2.20;;;2.10;;
14373;SDS011;7270;49.004;12.066;2023-06-04T12:26:32;2.05;;;1.95;;
14373;SDS011;7270;49.004;12.066;2023-06-04T12:29:02;2.20;;;2.10;;
14373;SDS011;7270;49.004;12.066;2023-06-04T12:31:34;2.10;;;2.00;;
14373;SDS011;7270;49.004;12.066;2023-06-04T12:34:00;2.10;;;2.00;;
14373;SDS011;7270;49.004;12.066;2023-06-04T12:36:27;2.10;;;2.00;;
14373;SDS011;7270;49.004;12.066;2023-06-04T12:38:55;2.08;;;1.98;;
14373;SDS011;7270;49.004;12.066;2023-06-04T12:41:21;2.10;;;2.00;;
14373;SDS011;7270;49.004;12.066;2023-06-04T12:43:50;1.92;;;1.83;;
14373;SDS011;7270;49.004;12.066;2023-06-04T12:46:16;1.83;;;1.73;;
14373;SDS011;7270;49.004;12.066;2023-06-04T12:48:44;1.90;;;1.80;;
14373;SDS011;7270;49.004;12.066;2023-06-04T12:51:11;1.90;;;1.80;;
14373;SDS011;7270;49.004;12.066;2023-06-04T12:53:38;1.90;;;1.80;;
14373;SDS011;7270;49.004;12.066;2023-06-04T12:56:04;1.88;;;1.77;;
14373;SDS011;7270;49.004;12.066;2023-06-04T12:58:30;1.90;;;1.80;;
14373;SDS011;7270;49.004;12.066;2023-06-04T13:00:57;1.90;;;1.80;;
14373;SDS011;7270;49.004;12.066;2023-06-04T13:03:23;1.90;;;1.80;;
14373;SDS011;7270;49.004;12.066;2023-06-04T13:05:51;1.80;;;1.70;;
14373;SDS011;7270;49.004;12.066;2023-06-04T13:08:18;1.90;;;1.80;;
14373;SDS011;7270;49.004;12.066;2023-06-04T13:10:45;1.80;;;1.70;;
14373;SDS011;7270;49.004;12.066;2023-06-04T13:13:11;1.73;;;1.63;;
14373;SDS011;7270;49.004;12.066;2023-06-04T13:15:40;1.70;;;1.60;;
14373;SDS011;7270;49.004;12.066;2023-06-04T13:18:07;1.67;;;1.57;;
14373;SDS011;7270;49.004;12.066;2023-06-04T13:20:33;1.60;;;1.50;;
14373;SDS011;7270;49.004;12.066;2023-06-04T13:23:01;1.60;;;1.50;;
14373;SDS011;7270;49.004;12.066;2023-06-04T13:25:27;1.70;;;1.60;;
14373;SDS011;7270;49.004;12.066;2023-06-04T13:27:55;1.57;;;1.47;;
14373;SDS011;7270;49.004;12.066;2023-06-04T13:30:21;1.70;;;1.60;;
14373;SDS011;7270;49.004;12.066;2023-06-04T13:32:48;1.50;;;1.40;;
14373;SDS011;7270;49.004;12.066;2023-06-04T13:35:14;1.67;;;1.57;;
14373;SDS011;7270;49.004;12.066;2023-06-04T13:37:41;1.57;;;1.47;;
14373;SDS011;7270;49.004;12.066;2023-06-04T13:40:09;1.60;;;1.50;;
14373;SDS011;7270;49.004;12.066;2023-06-04T13:42:35;1.70;;;1.60;;
14373;SDS011;7270;49.004;12.066;2023-06-04T13:45:03;1.60;;;1.50;;
14373;SDS011;7270;49.004;12.066;2023-06-04T13:47:29;1.60;;;1.50;;
14373;SDS011;7270;49.004;12.066;2023-06-04T13:49:57;1.70;;;1.60;;
14373;SDS011;7270;49.004;12.066;2023-06-04T13:52:23;1.70;;;1.60;;
14373;SDS011;7270;49.004;12.066;2023-06-04T13:54:49;1.60;;;1.50;;
14373;SDS011;7270;49.004;12.066;2023-06-04T13:57:17;1.60;;;1.50;;
14373;SDS011;7270;49.004;12.066;2023-06-04T13:59:44;2.63;;;2.53;;
14373;SDS011;7270;49.004;12.066;2023-06-04T14:02:10;1.50;;;1.40;;
14373;SDS011;7270;49.004;12.066;2023-06-04T14:04:36;1.50;;;1.40;;
14373;SDS011;7270;49.004;12.066;2023-06-04T14:07:03;1.40;;;1.30;;
14373;SDS011;7270;49.004;12.066;2023-06-04T14:09:30;1.43;;;1.33;;
14373;SDS011;7270;49.004;12.066;2023-06-04T14:11:56;1.50;;;1.40;;
14373;SDS011;7270;49.004;12.066;2023-06-04T14:14:24;1.50;;;1.40;;
14373;SDS011;7270;49.004;12.066;2023-06-04T14:16:50;1.40;;;1.30;;
14373;SDS011;7270;49.004;12.066;2023-06-04T14:19:19;1.20;;;1.20;;
14373;SDS011;7270;49.004;12.066;2023-06-04T14:21:45;1.40;;;1.30;;
14373;SDS011;7270;49.004;12.066;2023-06-04T14:24:11;1.40;;;1.30;;
14373;SDS011;7270;49.004;12.066;2023-06-04T14:26:38;1.40;;;1.30;;
14373;SDS011;7270;49.004;12.066;2023-06-04T14:29:04;1.50;;;1.40;;
14373;SDS011;7270;49.004;12.066;2023-06-04T14:31:32;1.40;;;1.30;;
14373;SDS011;7270;49.004;12.066;2023-06-04T14:33:58;1.40;;;1.30;;
14373;SDS011;7270;49.004;12.066;2023-06-04T14:36:24;1.20;;;1.20;;
14373;SDS011;7270;49.004;12.066;2023-06-04T14:38:51;1.40;;;1.30;;
14373;SDS011;7270;49.004;12.066;2023-06-04T14:41:17;1.30;;;1.20;;
14373;SDS011;7270;49.004;12.066;2023-06-04T14:43:43;1.40;;;1.30;;